Terminal Aerodrome Forecast
Issued by NWS Wilmington, NC

Current Version | Previous Version | Text Only | Print | Product List | Glossary On
Versions: 1 2 3 4 5 6 7 8 9 10 11 12
783
FTUS42 KILM 262320
TAFILM
TAF
KILM 262320Z 2700/2724 21009KT P6SM FEW030 FEW080
     FM270100 23006KT P6SM SKC
     FM270700 24005KT P6SM SCT050 BKN090
     FM271400 22011KT P6SM FEW050 SCT250=

USA.gov is the U.S. government's official web portal to all federal, state and local government web resources and services.